M I D A S
Marine Information and Data Acquisition System
Tripno 709 of the Zeeleeuw from 2004-05-06 07:29:35 to 2004-05-06 13:38:23
Back to CruiseResearch ActivitiesStationsMapUnderway DataData graphs

EquipmentUnitsComments
TimeDGPSUTC
LatitudeDGPSDM.mWGS84
LongitudeDGPSDM.mWGS84
SpeedMeteo Stationm/sRelative wind speed
DirectionMeteo StationdegRelative wind direction
TemperatureMeteo Stationdeg CelciusAir temperature
PressureMeteo StationPaAtmospheric pressure
HumidityMeteo Station%Relative humidity
Missing or incorrect values are displayed as -999
Metereological data collected by the RV Zeeleeuw from 2004-05-06 07:29:35 to 2004-05-06 13:38:23
Time Latitude Longitude Speed Direction Temperature Pressure Humidity
2004-05-06 07:30 51°13.574 2°56.146 4.4 28 9.2 99410 79
2004-05-06 07:31 51°13.545 2°56.226 4.9 36 9.2 99400 78
2004-05-06 07:32 51°13.525 2°56.248 1.6 31 9.2 99410 78
2004-05-06 07:33 51°13.524 2°56.241 3.4 334 9.3 99410 79
2004-05-06 07:34 51°13.532 2°56.247 2.7 317 9.5 99410 79
2004-05-06 07:35 51°13.538 2°56.178 3.1 290 9.6 99410 78
2004-05-06 07:36 51°13.548 2°56.148 4.4 236 9.6 99410 77
2004-05-06 07:37 51°13.559 2°56.124 2.8 268 9.6 99410 77
2004-05-06 07:38 51°13.568 2°56.097 1.8 310 9.6 99410 77
2004-05-06 07:39 51°13.587 2°56.043 2.3 280 9.7 99410 77
2004-05-06 07:40 51°13.638 2°55.925 3.1 310 9.8 99410 77
2004-05-06 07:41 51°13.707 2°55.786 3.3 279 9.9 99410 77
2004-05-06 07:42 51°13.802 2°55.666 1.7 298 9.9 99410 76
2004-05-06 07:43 51°13.921 2°55.576 1.3 46 10 99410 77
2004-05-06 07:44 51°14.052 2°55.482 2.2 345 10.1 99410 76
2004-05-06 07:45 51°14.195 2°55.366 3.6 346 10.2 99410 76
2004-05-06 07:46 51°14.323 2°55.165 4.4 343 10.2 99410 75
2004-05-06 07:47 51°14.418 2°54.899 7.6 328 10.2 99400 75
2004-05-06 07:48 51°14.432 2°54.566 10 329 10.2 99390 75
2004-05-06 07:49 51°14.386 2°54.216 11.1 339 10.2 99380 74
2004-05-06 07:50 51°14.264 2°53.9 10.3 347 10.1 99390 75
2004-05-06 07:51 51°14.174 2°53.557 11.5 337 10 99390 75
2004-05-06 07:52 51°14.052 2°53.23 11.6 351 10 99390 75
2004-05-06 07:53 51°13.926 2°52.905 11.8 348 10 99390 75
2004-05-06 07:54 51°13.806 2°52.556 12.1 348 9.9 99400 75
2004-05-06 07:55 51°13.681 2°52.215 11.7 347 10 99380 75
2004-05-06 07:56 51°13.545 2°51.884 12.5 350 9.9 99380 76
2004-05-06 07:57 51°13.406 2°51.556 12.5 353 9.9 99390 76
2004-05-06 07:58 51°13.267 2°51.228 12.7 351 9.9 99400 76
2004-05-06 07:59 51°13.124 2°50.903 11.6 347 9.9 99390 76
2004-05-06 08:00 51°12.983 2°50.574 12.8 351 9.9 99400 77
2004-05-06 08:01 51°12.845 2°50.246 12.6 348 9.9 99390 77
2004-05-06 08:02 51°12.721 2°49.905 12.5 353 9.9 99400 76
2004-05-06 08:03 51°12.594 2°49.566 10.8 353 10 99400 77
2004-05-06 08:04 51°12.469 2°49.23 11.2 351 9.9 99400 76
2004-05-06 08:05 51°12.345 2°48.878 11.5 350 9.9 99400 77
2004-05-06 08:06 51°12.225 2°48.53 11.9 349 9.9 99410 77
2004-05-06 08:07 51°12.117 2°48.172 10.8 348 9.9 99410 76
2004-05-06 08:08 51°12.023 2°47.843 8.9 336 10 99410 77
2004-05-06 08:09 51°12.058 2°47.669 4.1 264 10 99420 76
2004-05-06 08:10 51°12.111 2°47.654 1.9 156 10 99430 76
2004-05-06 08:11 51°12.125 2°47.663 4.1 149 10 99430 76
2004-05-06 08:12 51°12.122 2°47.656 4 125 10 99430 76
2004-05-06 08:13 51°12.114 2°47.646 3.8 113 10 99430 76
2004-05-06 08:14 51°12.103 2°47.633 6.3 115 10.1 99420 77
2004-05-06 08:15 51°12.09 2°47.617 5.3 110 10.1 99430 76
2004-05-06 08:16 51°12.064 2°47.614 5.7 53 10 99420 75
2004-05-06 08:17 51°11.966 2°47.604 7.6 15 9.9 99420 75
2004-05-06 08:18 51°11.843 2°47.488 9.6 2 10 99420 75
2004-05-06 08:19 51°11.713 2°47.357 9.2 1 10 99420 74
2004-05-06 08:20 51°11.598 2°47.292 7.3 47 10.1 99410 74
2004-05-06 08:21 51°11.556 2°47.339 5.9 92 10.1 99410 73
2004-05-06 08:22 51°11.55 2°47.316 4.2 119 10 99420 73
2004-05-06 08:23 51°11.543 2°47.298 6.6 134 10.1 99430 73
2004-05-06 08:24 51°11.536 2°47.283 4.9 139 10.1 99420 72
2004-05-06 08:25 51°11.53 2°47.271 5.1 142 10.2 99420 72
2004-05-06 08:26 51°11.526 2°47.27 5.5 150 10.1 99420 71
2004-05-06 08:27 51°11.526 2°47.276 3.9 136 10.2 99420 72
2004-05-06 08:28 51°11.535 2°47.285 5.3 167 10.3 99420 73
2004-05-06 08:29 51°11.573 2°47.332 3.1 159 10.2 99420 72
2004-05-06 08:30 51°11.638 2°47.406 3.4 149 10.2 99430 71
2004-05-06 08:31 51°11.686 2°47.481 4.3 135 10.2 99420 72
2004-05-06 08:32 51°11.723 2°47.555 4.2 136 10.3 99420 71
2004-05-06 08:33 51°11.753 2°47.61 3.6 138 10.3 99420 71
2004-05-06 08:34 51°11.773 2°47.661 5.2 139 10.4 99420 71
2004-05-06 08:35 51°11.79 2°47.715 3.6 144 10.5 99420 71
2004-05-06 08:36 51°11.816 2°47.763 4.4 163 10.5 99410 71
2004-05-06 08:37 51°11.851 2°47.813 6.4 166 10.3 99420 69
2004-05-06 08:38 51°11.881 2°47.874 5.2 128 10.4 99410 69
2004-05-06 08:39 51°11.902 2°47.943 5 147 10.5 99410 71
2004-05-06 08:40 51°11.925 2°48.009 3.6 154 10.5 99410 70
2004-05-06 08:41 51°11.954 2°48.067 3.6 134 10.5 99420 70
2004-05-06 08:42 51°11.98 2°48.129 4.4 145 10.5 99420 70
2004-05-06 08:43 51°11.998 2°48.198 2.2 126 10.6 99420 70
2004-05-06 08:44 51°12.022 2°48.259 4.2 144 10.7 99420 70
2004-05-06 08:45 51°12.048 2°48.32 3.4 132 10.6 99420 70
2004-05-06 08:46 51°12.07 2°48.384 3.5 134 10.7 99420 70
2004-05-06 08:47 51°12.101 2°48.436 4.4 136 10.7 99420 69
2004-05-06 08:48 51°12.128 2°48.494 3.2 148 10.6 99430 68
2004-05-06 08:49 51°12.15 2°48.559 4.4 138 10.6 99420 67
2004-05-06 08:50 51°12.17 2°48.625 6 135 10.7 99420 69
2004-05-06 08:51 51°12.19 2°48.693 5.6 131 10.7 99430 67
2004-05-06 08:52 51°12.212 2°48.76 4.5 134 10.7 99420 65
2004-05-06 08:53 51°12.236 2°48.824 5.4 135 10.7 99420 66
2004-05-06 08:54 51°12.261 2°48.887 5.1 130 10.7 99420 65
2004-05-06 08:55 51°12.287 2°48.95 4.2 135 10.7 99420 65
2004-05-06 08:56 51°12.312 2°49.014 4.1 143 10.8 99420 66
2004-05-06 08:57 51°12.337 2°49.077 5.2 164 10.8 99430 66
2004-05-06 08:58 51°12.36 2°49.14 4.9 155 10.7 99430 65
2004-05-06 08:59 51°12.378 2°49.202 4.6 142 10.7 99430 65
2004-05-06 09:00 51°12.39 2°49.26 3.6 146 10.7 99430 65
2004-05-06 09:01 51°12.394 2°49.3 5.5 130 10.8 99430 66
2004-05-06 09:02 51°12.392 2°49.331 5.4 131 10.8 99420 66
2004-05-06 09:03 51°12.385 2°49.351 6 108 10.8 99430 66
2004-05-06 09:04 51°12.374 2°49.365 4.4 111 10.9 99430 65
2004-05-06 09:05 51°12.361 2°49.373 6 108 10.8 99430 64
2004-05-06 09:06 51°12.351 2°49.392 5.4 112 10.9 99430 64
2004-05-06 09:07 51°12.373 2°49.444 3.6 117 10.9 99430 65
2004-05-06 09:08 51°12.409 2°49.521 4.3 114 10.9 99440 65
2004-05-06 09:09 51°12.449 2°49.606 4.4 114 10.9 99440 64
2004-05-06 09:10 51°12.5 2°49.689 5 135 10.9 99440 64
2004-05-06 09:11 51°12.549 2°49.774 2.9 133 11 99440 63
2004-05-06 09:12 51°12.599 2°49.856 2.8 132 11 99440 64
2004-05-06 09:13 51°12.647 2°49.936 2.6 116 11.1 99440 63
2004-05-06 09:14 51°12.696 2°50.017 3.1 122 11.1 99440 62
2004-05-06 09:15 51°12.743 2°50.099 3.8 128 11.2 99440 63
2004-05-06 09:16 51°12.786 2°50.188 2.2 119 11.2 99440 62
2004-05-06 09:17 51°12.83 2°50.275 5.3 121 11.3 99440 62
2004-05-06 09:18 51°12.874 2°50.365 4.3 124 11.3 99440 61
2004-05-06 09:19 51°12.916 2°50.456 5.3 126 11.2 99440 60
2004-05-06 09:20 51°12.958 2°50.547 4.2 130 11.2 99440 59
2004-05-06 09:21 51°13.001 2°50.635 6 141 11.2 99440 60
2004-05-06 09:22 51°13.045 2°50.728 4.2 136 11.2 99450 60
2004-05-06 09:23 51°13.089 2°50.821 3.5 140 11.3 99440 60
2004-05-06 09:24 51°13.135 2°50.911 2.4 123 11.3 99440 58
2004-05-06 09:25 51°13.179 2°51 3.3 136 11.3 99450 58
2004-05-06 09:26 51°13.223 2°51.091 2.8 125 11.4 99440 59
2004-05-06 09:27 51°13.265 2°51.183 3.4 137 11.4 99440 59
2004-05-06 09:28 51°13.304 2°51.28 3.7 141 11.5 99440 62
2004-05-06 09:29 51°13.344 2°51.375 4.2 109 11.6 99440 64
2004-05-06 09:30 51°13.385 2°51.47 3.4 128 11.6 99450 63
2004-05-06 09:31 51°13.425 2°51.565 2.7 123 11.6 99450 64
2004-05-06 09:32 51°13.465 2°51.66 2 118 11.6 99450 64
2004-05-06 09:33 51°13.503 2°51.756 3 141 11.6 99450 63
2004-05-06 09:34 51°13.543 2°51.851 1.9 151 11.6 99450 60
2004-05-06 09:35 51°13.582 2°51.947 2.4 144 11.6 99450 61
2004-05-06 09:36 51°13.621 2°52.043 2.7 135 11.6 99460 63
2004-05-06 09:37 51°13.66 2°52.14 2.3 147 11.6 99450 63
2004-05-06 09:38 51°13.7 2°52.237 2.3 159 11.4 99460 61
2004-05-06 09:39 51°13.74 2°52.335 2 146 11.3 99460 61
2004-05-06 09:40 51°13.78 2°52.433 2.6 134 11.3 99450 62
2004-05-06 09:41 51°13.819 2°52.532 3.1 136 11.3 99460 62
2004-05-06 09:42 51°13.86 2°52.632 1.6 138 11.3 99460 62
2004-05-06 09:43 51°13.897 2°52.731 1.3 135 11.3 99460 63
2004-05-06 09:44 51°13.95 2°52.856 1.8 49 11.4 99460 63
2004-05-06 09:45 51°14.057 2°53.108 2.7 40 11.5 99460 64
2004-05-06 09:46 51°14.163 2°53.39 2.7 44 11.4 99460 64
2004-05-06 09:47 51°14.239 2°53.698 3.9 23 11.4 99460 64
2004-05-06 09:48 51°14.303 2°54.014 5.7 8 11.4 99460 65
2004-05-06 09:49 51°14.379 2°54.323 6.2 51 11.5 99450 62
2004-05-06 09:50 51°14.434 2°54.647 7.7 44 11.5 99450 60
2004-05-06 09:51 51°14.392 2°54.976 7.6 54 11.5 99440 61
2004-05-06 09:52 51°14.288 2°55.238 6.9 29 11.4 99450 60
2004-05-06 09:53 51°14.187 2°55.397 7.7 27 11.7 99450 60
2004-05-06 09:54 51°14.092 2°55.484 5.3 23 11.7 99450 62
2004-05-06 09:55 51°13.992 2°55.548 8.3 27 11.8 99450 57
2004-05-06 09:56 51°13.889 2°55.608 8.7 11 11.9 99450 56
2004-05-06 09:57 51°13.787 2°55.664 6.7 4 12 99450 55
2004-05-06 09:58 51°13.714 2°55.77 5.8 39 12 99450 56
2004-05-06 09:59 51°13.66 2°55.891 5.3 25 11.9 99460 57
2004-05-06 10:00 51°13.624 2°55.996 4.1 79 12 99470 56
2004-05-06 10:01 51°13.6 2°56.08 4.4 60 12.1 99470 55
2004-05-06 10:02 51°13.596 2°56.097 2.4 119 12.1 99470 54
2004-05-06 10:03 51°13.596 2°56.098 4.9 131 12.2 99470 55
2004-05-06 10:04 51°13.596 2°56.097 4.7 143 12.2 99470 52
2004-05-06 10:05 51°13.596 2°56.097 5 107 12.3 99470 55
2004-05-06 10:06 51°13.596 2°56.098 4.5 85 12.3 99470 52
2004-05-06 10:07 51°13.595 2°56.098 3.1 101 12.2 99480 54
2004-05-06 10:08 51°13.595 2°56.097 3.7 105 12.3 99470 53
2004-05-06 10:09 51°13.595 2°56.097 4.8 42 12.4 99470 52
2004-05-06 10:10 51°13.596 2°56.097 3.7 109 12.5 99480 53
2004-05-06 10:11 51°13.596 2°56.096 3.2 24 12.5 99480 53
2004-05-06 10:12 51°13.597 2°56.097 2.2 45 12.6 99480 51
2004-05-06 10:13 51°13.596 2°56.096 3.3 63 12.6 99480 53
2004-05-06 10:14 51°13.595 2°56.095 3.9 23 12.7 99470 52
2004-05-06 10:15 51°13.596 2°56.096 4.2 49 12.8 99470 53
2004-05-06 10:16 51°13.596 2°56.095 3.5 29 12.8 99480 53
2004-05-06 10:17 51°13.596 2°56.094 2.8 61 12.8 99480 49
2004-05-06 10:18 51°13.596 2°56.094 4.4 73 12.8 99480 50
2004-05-06 10:19 51°13.596 2°56.094 4.2 55 12.7 99480 50
2004-05-06 10:20 51°13.595 2°56.093 3.5 44 12.6 99480 50
2004-05-06 10:21 51°13.595 2°56.094 3.1 78 12.5 99480 51
2004-05-06 10:22 51°13.595 2°56.094 2.1 96 12.6 99480 52
2004-05-06 10:23 51°13.596 2°56.094 2.4 80 12.7 99480 49
2004-05-06 10:24 51°13.598 2°56.097 2.1 56 12.8 99480 50
2004-05-06 10:25 51°13.599 2°56.099 3.6 101 12.9 99490 50
2004-05-06 10:26 51°13.597 2°56.096 3.5 50 12.9 99480 51
2004-05-06 10:27 51°13.596 2°56.096 4.6 97 12.8 99480 51
2004-05-06 10:28 51°13.596 2°56.096 2.9 123 12.8 99480 52
2004-05-06 10:29 51°13.595 2°56.097 3.5 45 12.9 99480 54
2004-05-06 10:30 51°13.596 2°56.098 4.9 33 13 99480 51
2004-05-06 10:31 51°13.597 2°56.097 3.3 25 12.7 99480 51
2004-05-06 10:32 51°13.597 2°56.097 3 37 12.6 99480 52
2004-05-06 10:33 51°13.598 2°56.098 2.7 74 12.6 99480 53
2004-05-06 10:34 51°13.598 2°56.097 3 104 12.5 99480 53
2004-05-06 10:35 51°13.598 2°56.098 2.6 58 12.6 99480 56
2004-05-06 10:36 51°13.598 2°56.097 2.2 53 12.7 99480 54
2004-05-06 10:37 51°13.597 2°56.097 2.8 52 12.6 99480 52
2004-05-06 10:38 51°13.597 2°56.096 4 37 12.5 99480 53
2004-05-06 10:39 51°13.597 2°56.097 3 138 12.6 99480 54
2004-05-06 10:40 51°13.596 2°56.098 4 105 12.6 99490 54
2004-05-06 10:41 51°13.596 2°56.097 1.9 71 12.6 99490 54
2004-05-06 10:42 51°13.596 2°56.098 3.7 79 12.5 99490 55
2004-05-06 10:43 51°13.596 2°56.098 3.7 108 12.4 99490 54
2004-05-06 10:44 51°13.595 2°56.099 3.5 116 12.4 99490 55
2004-05-06 10:45 51°13.596 2°56.1 3.3 138 12.5 99490 54
2004-05-06 10:46 51°13.596 2°56.1 2.5 79 12.5 99490 55
2004-05-06 10:47 51°13.595 2°56.098 3.7 80 12.6 99490 53
2004-05-06 10:48 51°13.595 2°56.097 2.6 101 12.5 99490 53
2004-05-06 10:49 51°13.595 2°56.099 1.7 119 12.6 99500 55
2004-05-06 10:50 51°13.595 2°56.1 2.7 71 12.7 99490 52
2004-05-06 10:51 51°13.595 2°56.099 1.3 101 12.7 99490 52
2004-05-06 10:52 51°13.594 2°56.097 2.9 92 12.8 99490 52
2004-05-06 10:53 51°13.596 2°56.098 4.2 105 12.9 99490 51
2004-05-06 10:54 51°13.596 2°56.097 3.3 124 12.8 99490 51
2004-05-06 10:55 51°13.596 2°56.097 4.1 34 12.8 99480 54
2004-05-06 10:56 51°13.596 2°56.097 5.6 91 12.9 99490 52
2004-05-06 10:57 51°13.596 2°56.097 5.6 89 12.8 99490 50
2004-05-06 10:58 51°13.596 2°56.097 2.3 26 12.8 99490 52
2004-05-06 10:59 51°13.597 2°56.098 3.2 77 13 99490 52
2004-05-06 11:00 51°13.598 2°56.099 1.4 55 13 99490 50
2004-05-06 11:01 51°13.597 2°56.097 1.7 51 13.1 99490 52
2004-05-06 11:02 51°13.597 2°56.097 3.2 47 13.1 99490 51
2004-05-06 11:03 51°13.597 2°56.097 2.5 64 13 99490 51
2004-05-06 11:04 51°13.597 2°56.098 1.2 89 13 99490 52
2004-05-06 11:05 51°13.598 2°56.098 2.1 37 13.1 99490 53
2004-05-06 11:06 51°13.598 2°56.096 2.8 84 13.2 99490 53
2004-05-06 11:07 51°13.597 2°56.096 1.8 110 13.3 99490 52
2004-05-06 11:08 51°13.598 2°56.096 5.3 75 13.4 99490 51
2004-05-06 11:09 51°13.597 2°56.096 4.7 60 13.5 99490 49
2004-05-06 11:10 51°13.598 2°56.098 3.9 38 13.5 99490 49
2004-05-06 11:11 51°13.597 2°56.097 6.3 29 13.5 99490 49
2004-05-06 11:12 51°13.597 2°56.098 7.2 29 13.5 99480 50
2004-05-06 11:13 51°13.597 2°56.097 3.9 33 13.4 99490 49
2004-05-06 11:14 51°13.597 2°56.096 3.3 77 13.1 99490 51
2004-05-06 11:15 51°13.597 2°56.096 2.5 80 13 99490 52
2004-05-06 11:16 51°13.597 2°56.098 3.7 120 13.1 99490 51
2004-05-06 11:17 51°13.597 2°56.097 3.5 22 13.3 99490 50
2004-05-06 11:18 51°13.598 2°56.099 3.7 62 13.2 99490 50
2004-05-06 11:19 51°13.598 2°56.098 3.5 52 13.1 99490 48
2004-05-06 11:20 51°13.598 2°56.099 2.3 48 13.1 99490 49
2004-05-06 11:21 51°13.597 2°56.099 3.7 46 13.1 99490 51
2004-05-06 11:22 51°13.597 2°56.1 5.6 27 13 99490 51
2004-05-06 11:23 51°13.597 2°56.1 3.5 62 13 99490 52
2004-05-06 11:24 51°13.598 2°56.099 0.8 87 13 99490 51
2004-05-06 11:25 51°13.598 2°56.099 1.8 55 13.1 99500 51
2004-05-06 11:26 51°13.598 2°56.098 2.4 134 13.3 99500 51
2004-05-06 11:27 51°13.599 2°56.097 2.4 123 13.3 99500 49
2004-05-06 11:28 51°13.598 2°56.098 2.4 120 13.3 99500 50
2004-05-06 11:29 51°13.597 2°56.096 1.4 152 13.1 99500 50
2004-05-06 11:30 51°13.619 2°56.017 4.5 153 13.2 99500 51
2004-05-06 11:31 51°13.657 2°55.9 1.9 168 13.2 99490 49
2004-05-06 11:32 51°13.679 2°55.773 4.3 224 13.4 99500 54
2004-05-06 11:33 51°13.687 2°55.749 4.7 335 13.2 99500 57
2004-05-06 11:34 51°13.746 2°55.726 5.2 10 13.2 99490 56
2004-05-06 11:35 51°13.83 2°55.638 8.7 4 13 99490 60
2004-05-06 11:36 51°13.951 2°55.554 8 358 12.6 99490 60
2004-05-06 11:37 51°14.073 2°55.465 9.5 2 12.5 99490 61
2004-05-06 11:38 51°14.211 2°55.348 10.2 3 12.3 99490 60
2004-05-06 11:39 51°14.333 2°55.139 9.5 11 12.1 99490 59
2004-05-06 11:40 51°14.461 2°54.905 10.5 21 12.1 99480 61
2004-05-06 11:41 51°14.577 2°54.629 10.1 20 12.1 99490 61
2004-05-06 11:42 51°14.676 2°54.339 9.8 21 12.1 99490 61
2004-05-06 11:43 51°14.688 2°54.033 7.1 34 12 99490 61
2004-05-06 11:44 51°14.519 2°53.888 5.6 33 11.8 99510 63
2004-05-06 11:45 51°14.336 2°53.76 5.3 41 11.6 99510 63
2004-05-06 11:46 51°14.176 2°53.584 6.7 35 11.5 99510 63
2004-05-06 11:47 51°14.048 2°53.353 7 36 11.4 99500 63
2004-05-06 11:48 51°13.921 2°53.127 6.7 36 11.4 99500 65
2004-05-06 11:49 51°13.817 2°52.871 8.1 31 11.3 99500 64
2004-05-06 11:50 51°13.717 2°52.603 7.7 36 11.4 99500 63
2004-05-06 11:51 51°13.608 2°52.35 7.9 34 11.4 99500 64
2004-05-06 11:52 51°13.502 2°52.101 7.5 35 11.4 99500 63
2004-05-06 11:53 51°13.392 2°51.846 7.2 37 11.3 99500 65
2004-05-06 11:54 51°13.284 2°51.597 7.1 39 11.4 99510 65
2004-05-06 11:55 51°13.176 2°51.349 7.2 39 11.3 99510 65
2004-05-06 11:56 51°13.07 2°51.106 6.3 38 11.3 99510 66
2004-05-06 11:57 51°12.96 2°50.857 7.2 35 11.3 99500 66
2004-05-06 11:58 51°12.852 2°50.612 7.4 38 11.3 99500 66
2004-05-06 11:59 51°12.744 2°50.367 7.7 39 11.3 99500 65
2004-05-06 12:00 51°12.636 2°50.121 7.9 38 11.3 99500 65
2004-05-06 12:01 51°12.527 2°49.879 7.9 38 11.3 99500 66
2004-05-06 12:02 51°12.423 2°49.634 8 31 11.3 99500 66
2004-05-06 12:03 51°12.325 2°49.365 8.8 32 11.3 99500 65
2004-05-06 12:04 51°12.231 2°49.11 8 30 11.4 99500 64
2004-05-06 12:05 51°12.126 2°48.854 7.9 40 11.4 99500 65
2004-05-06 12:06 51°12.026 2°48.609 8.1 33 11.4 99500 65
2004-05-06 12:07 51°11.923 2°48.341 7 40 11.4 99500 65
2004-05-06 12:08 51°11.813 2°48.089 7.9 38 11.4 99500 67
2004-05-06 12:09 51°11.709 2°47.856 5.6 51 11.3 99500 65
2004-05-06 12:10 51°11.65 2°47.766 4.2 89 11.3 99510 66
2004-05-06 12:11 51°11.652 2°47.779 3.6 112 11.3 99510 66
2004-05-06 12:12 51°11.656 2°47.799 3.7 112 11.4 99510 65
2004-05-06 12:13 51°11.662 2°47.822 4 103 11.4 99510 66
2004-05-06 12:14 51°11.671 2°47.85 4 103 11.4 99510 65
2004-05-06 12:15 51°11.681 2°47.878 3.8 100 11.5 99510 65
2004-05-06 12:16 51°11.693 2°47.909 3.7 103 11.5 99510 64
2004-05-06 12:17 51°11.705 2°47.939 4 88 11.5 99520 66
2004-05-06 12:18 51°11.717 2°47.973 3.7 89 11.4 99520 64
2004-05-06 12:19 51°11.731 2°48.003 3.6 94 11.4 99520 65
2004-05-06 12:20 51°11.74 2°48.018 3.7 105 11.4 99520 66
2004-05-06 12:21 51°11.741 2°48.026 3.7 106 11.5 99520 67
2004-05-06 12:22 51°11.738 2°48.025 4.1 87 11.4 99520 66
2004-05-06 12:23 51°11.748 2°47.994 4.5 54 11.4 99520 66
2004-05-06 12:24 51°11.787 2°47.972 5 16 11.3 99520 66
2004-05-06 12:25 51°11.847 2°47.991 4.9 355 11.3 99520 65
2004-05-06 12:26 51°11.905 2°48.041 5 340 11.4 99520 66
2004-05-06 12:27 51°11.954 2°48.114 4.3 317 11.5 99520 64
2004-05-06 12:28 51°11.994 2°48.201 3.9 313 11.5 99520 65
2004-05-06 12:29 51°12.027 2°48.284 3.6 228 11.7 99530 65
2004-05-06 12:30 51°12.058 2°48.368 3.9 307 11.7 99520 65
2004-05-06 12:31 51°12.087 2°48.452 4.1 308 11.7 99520 64
2004-05-06 12:32 51°12.113 2°48.538 4.5 293 11.8 99530 64
2004-05-06 12:33 51°12.139 2°48.624 4.4 290 11.8 99530 66
2004-05-06 12:34 51°12.164 2°48.71 3.9 299 11.9 99530 66
2004-05-06 12:35 51°12.188 2°48.794 3.8 301 11.9 99530 65
2004-05-06 12:36 51°12.211 2°48.876 4.5 299 11.9 99530 66
2004-05-06 12:37 51°12.235 2°48.956 4.3 299 11.9 99530 65
2004-05-06 12:38 51°12.262 2°49.037 4.3 302 12 99530 65
2004-05-06 12:39 51°12.287 2°49.115 4.5 312 12 99530 65
2004-05-06 12:40 51°12.313 2°49.193 4.1 228 12 99530 66
2004-05-06 12:41 51°12.337 2°49.271 4.3 305 12 99530 66
2004-05-06 12:42 51°12.363 2°49.347 4.2 313 12 99530 66
2004-05-06 12:43 51°12.387 2°49.421 3.8 314 12 99540 66
2004-05-06 12:44 51°12.412 2°49.499 3.9 227 12 99540 66
2004-05-06 12:45 51°12.437 2°49.576 3.9 316 12.1 99540 65
2004-05-06 12:46 51°12.463 2°49.65 3.9 43 12.2 99540 64
2004-05-06 12:47 51°12.488 2°49.724 3.9 317 12.2 99540 63
2004-05-06 12:48 51°12.514 2°49.798 3.9 321 12.2 99540 63
2004-05-06 12:49 51°12.541 2°49.871 3.7 322 12.3 99540 62
2004-05-06 12:50 51°12.568 2°49.943 4.3 322 12.3 99540 63
2004-05-06 12:51 51°12.596 2°50.013 4.3 324 12.3 99540 62
2004-05-06 12:52 51°12.625 2°50.083 3.8 321 12.3 99540 63
2004-05-06 12:53 51°12.654 2°50.154 4.3 321 12.3 99540 62
2004-05-06 12:54 51°12.682 2°50.224 4 312 12.3 99540 63
2004-05-06 12:55 51°12.71 2°50.296 4.4 327 12.3 99540 65
2004-05-06 12:56 51°12.739 2°50.366 4.3 325 12.3 99540 64
2004-05-06 12:57 51°12.768 2°50.436 4.8 322 12.2 99540 63
2004-05-06 12:58 51°12.798 2°50.505 4.9 327 12.2 99540 63
2004-05-06 12:59 51°12.829 2°50.575 4.7 331 12.2 99540 63
2004-05-06 13:00 51°12.86 2°50.643 4.5 340 12.2 99540 63
2004-05-06 13:01 51°12.891 2°50.708 4.7 341 12.2 99550 63
2004-05-06 13:02 51°12.92 2°50.775 4.5 321 12.3 99550 63
2004-05-06 13:03 51°12.944 2°50.849 4.7 315 12.2 99550 64
2004-05-06 13:04 51°12.965 2°50.923 5.4 308 12.2 99550 64
2004-05-06 13:05 51°12.994 2°51.014 5.8 339 12.3 99550 64
2004-05-06 13:06 51°13.054 2°51.124 5.7 350 12.3 99550 63
2004-05-06 13:07 51°13.107 2°51.205 5.1 352 12.3 99550 64
2004-05-06 13:08 51°13.152 2°51.276 5.2 353 12.3 99550 63
2004-05-06 13:09 51°13.192 2°51.343 5.3 349 12.3 99550 64
2004-05-06 13:10 51°13.262 2°51.459 8.5 352 12.3 99550 62
2004-05-06 13:11 51°13.41 2°51.661 7.8 354 12.3 99540 63
2004-05-06 13:12 51°13.506 2°51.757 6.7 15 12.3 99550 62
2004-05-06 13:13 51°13.576 2°51.8 5.3 36 12.2 99560 62
2004-05-06 13:14 51°13.636 2°51.831 5.1 23 11.9 99560 63
2004-05-06 13:15 51°13.694 2°51.898 5.6 347 11.9 99560 64
2004-05-06 13:16 51°13.75 2°51.993 4.9 341 11.9 99560 64
2004-05-06 13:17 51°13.801 2°52.098 5.9 339 12 99560 64
2004-05-06 13:18 51°13.855 2°52.217 5.5 337 12.1 99560 62
2004-05-06 13:19 51°13.902 2°52.341 4.9 325 12.1 99560 63
2004-05-06 13:20 51°13.939 2°52.472 5.1 321 12.1 99560 63
2004-05-06 13:21 51°13.974 2°52.604 5.7 320 12.1 99560 63
2004-05-06 13:22 51°14.015 2°52.73 5.4 334 12.2 99560 63
2004-05-06 13:23 51°14.063 2°52.854 5.7 329 12.2 99560 62
2004-05-06 13:24 51°14.11 2°52.977 5.5 326 12.2 99560 62
2004-05-06 13:25 51°14.156 2°53.102 5 329 12.2 99560 63
2004-05-06 13:26 51°14.196 2°53.231 5.1 227 12.2 99560 62
2004-05-06 13:27 51°14.236 2°53.356 5.3 319 12.2 99560 63
2004-05-06 13:28 51°14.279 2°53.486 4.9 321 12.2 99560 63
2004-05-06 13:29 51°14.324 2°53.615 5 320 12.2 99560 63
2004-05-06 13:30 51°14.37 2°53.75 5.3 324 12.2 99560 63
2004-05-06 13:31 51°14.441 2°53.982 8.1 340 12.2 99550 63
2004-05-06 13:32 51°14.477 2°54.297 7 335 12.2 99550 63
2004-05-06 13:33 51°14.463 2°54.649 7.3 333 12.2 99550 63
2004-05-06 13:34 51°14.401 2°54.978 6.4 329 12.1 99550 64
2004-05-06 13:35 51°14.282 2°55.225 3.7 329 12.2 99560 65
2004-05-06 13:36 51°14.185 2°55.375 2 317 12.2 99560 64
2004-05-06 13:37 51°14.076 2°55.474 2 317 12.2 99570 63